Time;durP1;ratioP1;P1;durP2;ratioP2;P2;SDS_P1;SDS_P2;PMS_P1;PMS_P2;Temp;Humidity;BMP_temperature;BMP_pressure;BME280_temperature;BME280_humidity;BME280_pressure;Samples;Min_cycle;Max_cycle;Signal;HPM_P1;HPM_P2
2024/04/17 00:02:21;;;;;;;12.10;6.90;;;;;;;4.43;87.85;97762.16;106035;1254;97967;-70
2024/04/17 00:04:49;;;;;;;12.00;6.20;;;;;;;4.42;87.97;97763.59;105287;1256;107318;-70
2024/04/17 00:07:16;;;;;;;10.80;6.90;;;;;;;4.41;87.91;97761.55;105236;1251;97963;-70
2024/04/17 00:09:44;;;;;;;10.60;6.20;;;;;;;4.40;87.89;97761.46;105711;1254;99145;-73
2024/04/17 00:12:11;;;;;;;9.30;6.00;;;;;;;4.38;87.99;97754.77;106320;1254;110291;-69
2024/04/17 00:14:39;;;;;;;11.80;6.50;;;;;;;4.36;88.16;97753.48;106248;1254;97946;-72
2024/04/17 00:17:07;;;;;;;15.00;7.50;;;;;;;4.35;88.11;97754.92;105858;1256;107106;-70
2024/04/17 00:19:34;;;;;;;12.20;6.60;;;;;;;4.35;88.21;97758.65;106269;1256;97944;-77
2024/04/17 00:22:02;;;;;;;12.40;7.10;;;;;;;4.35;88.53;97754.73;105802;1265;98028;-71
2024/04/17 00:24:29;;;;;;;12.00;6.00;;;;;;;4.35;88.30;97752.15;105963;1256;111446;-70
2024/04/17 00:26:57;;;;;;;12.50;6.90;;;;;;;4.34;88.33;97749.02;105882;1257;97948;-70
2024/04/17 00:29:25;;;;;;;11.90;7.30;;;;;;;4.32;88.20;97745.30;105595;1266;107252;-69
2024/04/17 00:31:52;;;;;;;10.90;6.50;;;;;;;4.29;88.18;97738.53;105977;1253;98016;-70
2024/04/17 00:34:20;;;;;;;11.30;6.20;;;;;;;4.24;88.09;97730.40;105761;1253;98038;-73
2024/04/17 00:36:47;;;;;;;11.00;6.20;;;;;;;4.21;88.18;97733.80;106835;1255;110663;-72
2024/04/17 00:39:15;;;;;;;10.30;7.00;;;;;;;4.16;88.29;97735.32;105241;1257;98094;-68
2024/04/17 00:41:42;;;;;;;14.60;7.00;;;;;;;4.14;88.46;97725.83;106739;1256;107635;-71
2024/04/17 00:44:10;;;;;;;10.20;6.40;;;;;;;4.11;88.53;97725.69;105521;1256;97934;-70
2024/04/17 00:46:38;;;;;;;12.20;7.10;;;;;;;4.07;88.33;97717.35;105580;1259;97917;-70
2024/04/17 00:49:06;;;;;;;10.50;6.50;;;;;;;4.03;88.35;97709.58;106607;1256;110852;-70
2024/04/17 00:51:35;;;;;;;12.90;7.20;;;;;;;3.99;88.34;97701.77;105831;1256;97936;-70
2024/04/17 00:54:03;;;;;;;11.70;6.80;;;;;;;3.95;88.40;97700.28;105213;1267;105724;-70
2024/04/17 00:56:32;;;;;;;14.90;6.80;;;;;;;3.93;88.35;97701.13;106208;1256;98426;-70
2024/04/17 00:59:00;;;;;;;10.60;6.00;;;;;;;3.87;88.11;97698.48;105956;1256;98048;-74
2024/04/17 01:01:28;;;;;;;8.20;5.40;;;;;;;3.83;88.29;97693.86;105467;1256;111160;-70
2024/04/17 01:03:55;;;;;;;12.40;7.00;;;;;;;3.78;88.10;97694.89;105336;1254;97964;-72
2024/04/17 01:06:23;;;;;;;11.10;6.60;;;;;;;3.73;88.35;97694.50;106280;1254;107602;-69
2024/04/17 01:08:51;;;;;;;10.40;6.50;;;;;;;3.70;88.12;97695.56;107082;1256;99241;-71
2024/04/17 01:11:19;;;;;;;10.20;5.90;;;;;;;3.66;88.33;97695.66;105436;1253;98081;-68
2024/04/17 01:13:46;;;;;;;15.00;6.90;;;;;;;3.63;88.26;97698.37;105630;1254;110877;-75
2024/04/17 01:16:14;;;;;;;12.10;7.00;;;;;;;3.60;88.39;97695.73;105182;1254;97935;-70
2024/04/17 01:18:43;;;;;;;13.80;7.60;;;;;;;3.57;88.46;97696.41;105943;1256;108263;-69
2024/04/17 01:21:11;;;;;;;11.60;6.80;;;;;;;3.55;88.53;97696.23;105970;1254;98034;-70
2024/04/17 01:23:38;;;;;;;12.10;7.10;;;;;;;3.52;88.51;97698.00;105909;1255;98064;-70
2024/04/17 01:26:06;;;;;;;13.00;7.40;;;;;;;3.50;88.46;97693.04;105747;1257;110420;-70
2024/04/17 01:28:34;;;;;;;15.40;7.10;;;;;;;3.50;88.65;97693.75;105815;1254;98075;-71
2024/04/17 01:31:01;;;;;;;13.10;7.60;;;;;;;3.49;88.81;97694.34;105473;1257;107602;-71
2024/04/17 01:33:29;;;;;;;13.40;7.40;;;;;;;3.46;88.61;97695.56;105702;1257;97955;-73
2024/04/17 01:35:56;;;;;;;16.70;8.20;;;;;;;3.42;88.65;97693.90;106277;1254;97947;-72
2024/04/17 01:38:24;;;;;;;17.30;7.70;;;;;;;3.39;88.67;97688.86;105450;1265;111242;-70
2024/04/17 01:40:51;;;;;;;13.80;7.40;;;;;;;3.35;88.56;97681.40;105900;1256;98003;-73
2024/04/17 01:43:19;;;;;;;10.70;6.90;;;;;;;3.31;88.68;97683.08;106570;1251;107614;-72
2024/04/17 01:45:47;;;;;;;10.80;6.50;;;;;;;3.28;88.79;97684.47;107274;1256;97974;-73
2024/04/17 01:48:15;;;;;;;10.20;7.00;;;;;;;3.25;88.75;97678.56;105692;1256;97834;-70
2024/04/17 01:50:42;;;;;;;9.50;6.10;;;;;;;3.22;88.72;97672.65;105577;1256;110852;-70
2024/04/17 01:53:10;;;;;;;12.90;6.70;;;;;;;3.19;88.64;97668.09;105235;1266;97885;-72
2024/04/17 01:55:38;;;;;;;10.70;6.60;;;;;;;3.19;88.87;97661.27;108304;1254;107380;-71
2024/04/17 01:58:05;;;;;;;10.20;6.50;;;;;;;3.20;88.79;97656.62;105315;1257;98041;-70
2024/04/17 02:00:35;;;;;;;13.10;7.90;;;;;;;3.20;88.90;97650.70;105384;1256;97964;-75
2024/04/17 02:03:03;;;;;;;11.50;7.00;;;;;;;3.19;88.88;97651.10;105957;1255;110987;-69
2024/04/17 02:05:31;;;;;;;11.40;6.40;;;;;;;3.18;88.93;97651.35;105442;1256;97968;-68
2024/04/17 02:07:59;;;;;;;11.20;6.90;;;;;;;3.13;88.66;97650.55;106208;1256;107434;-70
2024/04/17 02:10:26;;;;;;;9.40;6.30;;;;;;;3.10;88.93;97653.58;106120;1257;97965;-68
2024/04/17 02:12:54;;;;;;;10.10;6.40;;;;;;;3.08;88.80;97656.14;105082;1264;99315;-71
2024/04/17 02:15:22;;;;;;;11.70;6.00;;;;;;;3.07;89.00;97654.30;105855;1256;110602;-69
2024/04/17 02:17:49;;;;;;;11.90;6.20;;;;;;;3.05;89.00;97653.39;105731;1256;97945;-70
2024/04/17 02:20:17;;;;;;;10.80;5.40;;;;;;;3.01;89.13;97661.16;106209;1252;107641;-69
2024/04/17 02:22:45;;;;;;;11.80;4.80;;;;;;;2.94;88.67;97665.43;105715;1256;97958;-71
2024/04/17 02:25:12;;;;;;;7.80;4.60;;;;;;;2.88;88.56;97660.77;105872;1255;97922;-69
2024/04/17 02:27:40;;;;;;;9.00;5.00;;;;;;;2.81;88.55;97662.09;106388;1256;110263;-74
2024/04/17 02:30:09;;;;;;;9.40;4.90;;;;;;;2.73;88.69;97660.49;105539;1256;97954;-72
2024/04/17 02:32:37;;;;;;;10.60;5.50;;;;;;;2.65;88.39;97658.17;106395;1255;107562;-69
2024/04/17 02:35:05;;;;;;;8.80;5.10;;;;;;;2.59;88.47;97658.20;106003;1256;98023;-70
2024/04/17 02:37:33;;;;;;;10.70;5.60;;;;;;;2.56;88.56;97657.51;105694;1260;97974;-71
2024/04/17 02:40:00;;;;;;;8.50;5.30;;;;;;;2.54;88.70;97658.18;106806;1256;111232;-74
2024/04/17 02:42:28;;;;;;;11.60;5.10;;;;;;;2.50;88.67;97661.89;106311;1256;97974;-69
2024/04/17 02:44:55;;;;;;;7.80;5.20;;;;;;;2.46;88.68;97661.30;105498;1256;108175;-70
2024/04/17 02:47:23;;;;;;;9.80;6.10;;;;;;;2.43;88.53;97663.95;105637;1260;98019;-71
2024/04/17 02:49:50;;;;;;;9.80;5.50;;;;;;;2.40;88.65;97662.20;105765;1256;98681;-70
2024/04/17 02:52:18;;;;;;;10.00;5.20;;;;;;;2.40;89.24;97657.10;105898;1256;111207;-70
2024/04/17 02:54:46;;;;;;;8.40;4.80;;;;;;;2.41;89.06;97648.34;105684;1254;97899;-69
2024/04/17 02:57:14;;;;;;;13.80;5.10;;;;;;;2.43;89.34;97639.98;105705;1256;107450;-71
2024/04/17 02:59:41;;;;;;;12.10;5.20;;;;;;;2.47;89.39;97637.09;105188;1254;98644;-70
2024/04/17 03:02:09;;;;;;;10.90;5.10;;;;;;;2.50;89.66;97633.52;105846;1256;97961;-75
2024/04/17 03:04:36;;;;;;;9.80;5.20;;;;;;;2.53;89.64;97636.16;105213;1257;111126;-69
2024/04/17 03:07:04;;;;;;;9.00;5.10;;;;;;;2.57;89.93;97634.91;106335;1255;97948;-72
2024/04/17 03:09:32;;;;;;;7.50;4.60;;;;;;;2.60;89.90;97636.95;105237;1257;107728;-78
2024/04/17 03:11:59;;;;;;;8.80;5.50;;;;;;;2.62;89.86;97635.60;105620;1272;98118;-70
2024/04/17 03:14:27;;;;;;;8.30;5.20;;;;;;;2.64;90.01;97633.89;105485;1256;97944;-70
2024/04/17 03:16:54;;;;;;;8.50;5.10;;;;;;;2.66;90.08;97633.45;105629;1254;111276;-69
2024/04/17 03:19:22;;;;;;;14.00;5.30;;;;;;;2.65;89.69;97633.52;106057;1256;98858;-70
2024/04/17 03:21:50;;;;;;;8.40;4.80;;;;;;;2.64;89.49;97633.90;105652;1259;108032;-70
2024/04/17 03:24:17;;;;;;;8.70;5.40;;;;;;;2.65;89.86;97633.34;105670;1256;98918;-69
2024/04/17 03:26:47;;;;;;;10.70;5.50;;;;;;;2.66;89.78;97634.66;105646;1257;99307;-71
2024/04/17 03:29:15;;;;;;;10.60;5.30;;;;;;;2.66;89.88;97632.77;105703;1256;111273;-71
2024/04/17 03:31:43;;;;;;;9.60;5.20;;;;;;;2.65;89.69;97634.56;105318;1265;97969;-71
2024/04/17 03:34:11;;;;;;;10.20;5.30;;;;;;;2.63;90.17;97638.33;105468;1256;107606;-71
2024/04/17 03:36:38;;;;;;;7.30;4.80;;;;;;;2.66;90.12;97638.55;105656;1257;97933;-71
2024/04/17 03:39:06;;;;;;;9.00;5.30;;;;;;;2.67;90.31;97639.88;106154;1256;97883;-70
2024/04/17 03:41:33;;;;;;;7.90;4.70;;;;;;;2.68;90.20;97638.73;108436;1253;111397;-73
2024/04/17 03:44:01;;;;;;;8.30;4.90;;;;;;;2.71;90.23;97640.46;107211;1254;97973;-71
2024/04/17 03:46:29;;;;;;;8.00;4.10;;;;;;;2.73;90.44;97645.24;105538;1256;108328;-75
2024/04/17 03:48:56;;;;;;;8.60;4.60;;;;;;;2.75;90.27;97649.69;105388;1257;99360;-71
2024/04/17 03:51:24;;;;;;;7.30;4.40;;;;;;;2.78;90.72;97645.66;105690;1266;98055;-73
2024/04/17 03:53:53;;;;;;;7.60;4.40;;;;;;;2.81;90.55;97648.98;105524;1260;111232;-70
2024/04/17 03:56:20;;;;;;;8.50;4.00;;;;;;;2.82;90.50;97651.52;105516;1257;98084;-69
2024/04/17 03:58:48;;;;;;;5.80;3.80;;;;;;;2.84;90.74;97659.48;104799;1264;106835;-71
2024/04/17 04:01:15;;;;;;;7.40;4.50;;;;;;;2.90;91.17;97664.66;106002;1256;98933;-65
2024/04/17 04:03:43;;;;;;;7.10;4.30;;;;;;;2.97;90.96;97662.84;104804;1257;99172;-66
2024/04/17 04:06:11;;;;;;;8.60;4.60;;;;;;;3.04;91.40;97661.49;105611;1256;111589;-68
2024/04/17 04:08:38;;;;;;;8.70;4.40;;;;;;;3.09;91.20;97662.20;105401;1254;97973;-68
2024/04/17 04:11:06;;;;;;;10.90;5.20;;;;;;;3.15;91.40;97666.55;106090;1257;107253;-71
2024/04/17 04:13:34;;;;;;;6.10;4.00;;;;;;;3.18;91.20;97662.70;105730;1257;98038;-71
2024/04/17 04:16:02;;;;;;;9.40;4.40;;;;;;;3.20;91.24;97662.56;105605;1257;97903;-71
2024/04/17 04:18:29;;;;;;;7.20;4.00;;;;;;;3.24;91.43;97666.17;105978;1256;110648;-66
2024/04/17 04:20:57;;;;;;;6.30;3.80;;;;;;;3.27;91.40;97673.48;107769;1256;96159;-69
2024/04/17 04:23:25;;;;;;;7.50;3.60;;;;;;;3.30;91.40;97675.09;106145;1256;106706;-70
2024/04/17 04:25:52;;;;;;;6.70;3.60;;;;;;;3.33;91.71;97679.95;106056;1264;98541;-69
2024/04/17 04:28:20;;;;;;;6.30;3.30;;;;;;;3.40;91.64;97685.65;105485;1257;98019;-67
2024/04/17 04:30:48;;;;;;;6.00;3.50;;;;;;;3.45;91.57;97691.46;108585;1253;110915;-70
2024/04/17 04:33:15;;;;;;;9.50;3.90;;;;;;;3.49;91.83;97697.36;108752;1254;95903;-69
2024/04/17 04:35:43;;;;;;;7.10;3.50;;;;;;;3.50;91.76;97697.98;108665;1254;107653;-68
2024/04/17 04:38:10;;;;;;;6.60;3.80;;;;;;;3.54;91.79;97702.41;106867;1256;98713;-68
2024/04/17 04:40:38;;;;;;;5.40;3.20;;;;;;;3.61;91.91;97703.23;105464;1266;98247;-68
2024/04/17 04:43:07;;;;;;;5.40;3.30;;;;;;;3.65;92.00;97700.13;106602;1254;111338;-73
2024/04/17 04:45:35;;;;;;;6.10;3.70;;;;;;;3.68;92.23;97704.69;105774;1257;99268;-69
2024/04/17 04:48:03;;;;;;;5.70;3.50;;;;;;;3.71;92.49;97703.27;105476;1267;107222;-67
2024/04/17 04:50:33;;;;;;;7.20;3.90;;;;;;;3.72;92.42;97703.67;105869;1260;99275;-70
2024/04/17 04:53:01;;;;;;;6.60;3.80;;;;;;;3.76;92.56;97705.20;105851;1257;97945;-68
2024/04/17 04:55:28;;;;;;;8.40;4.50;;;;;;;3.79;92.68;97709.92;105499;1257;110858;-68
2024/04/17 04:57:57;;;;;;;6.60;4.30;;;;;;;3.81;92.69;97707.16;105481;1256;98043;-69
2024/04/17 05:00:25;;;;;;;9.30;3.80;;;;;;;3.85;92.51;97709.19;106204;1256;107606;-67
2024/04/17 05:02:52;;;;;;;8.80;4.80;;;;;;;3.88;92.57;97708.39;105821;1257;97945;-70
2024/04/17 05:05:20;;;;;;;6.80;4.30;;;;;;;3.90;92.67;97706.70;105198;1266;97941;-69
2024/04/17 05:07:48;;;;;;;10.10;4.50;;;;;;;3.97;93.24;97708.52;105291;1254;111381;-68
2024/04/17 05:10:15;;;;;;;6.80;4.10;;;;;;;4.01;92.83;97704.05;105987;1262;98783;-67
2024/04/17 05:12:43;;;;;;;7.70;4.70;;;;;;;4.06;93.21;97708.69;105490;1264;107919;-68
2024/04/17 05:15:11;;;;;;;9.20;5.00;;;;;;;4.10;93.23;97704.36;105343;1254;99288;-66
2024/04/17 05:17:39;;;;;;;9.80;5.00;;;;;;;4.14;93.25;97702.67;105337;1254;97938;-67
2024/04/17 05:20:08;;;;;;;7.10;4.40;;;;;;;4.19;93.22;97703.21;105395;1264;111375;-66
2024/04/17 05:22:35;;;;;;;7.90;4.10;;;;;;;4.24;93.41;97702.18;105156;1257;99180;-67
2024/04/17 05:25:04;;;;;;;10.10;4.30;;;;;;;4.27;93.50;97696.19;105144;1256;107649;-68
2024/04/17 05:27:31;;;;;;;7.90;4.50;;;;;;;4.31;93.43;97700.64;105128;1257;97958;-72
2024/04/17 05:29:59;;;;;;;9.60;4.70;;;;;;;4.37;93.88;97694.61;105536;1256;98038;-68
2024/04/17 05:32:27;;;;;;;8.20;4.70;;;;;;;4.44;93.94;97696.23;105870;1256;110807;-68
2024/04/17 05:34:54;;;;;;;6.70;4.60;;;;;;;4.54;94.18;97694.70;105076;1258;97947;-67
2024/04/17 05:37:22;;;;;;;7.60;4.50;;;;;;;4.61;94.32;97689.96;105308;1256;107792;-72
2024/04/17 05:39:50;;;;;;;8.60;4.70;;;;;;;4.69;94.43;97691.89;104865;1259;98035;-67
2024/04/17 05:42:18;;;;;;;8.80;4.20;;;;;;;4.77;94.42;97690.96;105825;1257;97985;-67
2024/04/17 05:44:45;;;;;;;8.30;4.40;;;;;;;4.88;94.43;97688.26;105754;1255;112124;-68
2024/04/17 05:47:13;;;;;;;7.70;4.60;;;;;;;4.98;94.51;97686.70;105513;1256;99304;-69
2024/04/17 05:49:41;;;;;;;8.50;4.50;;;;;;;5.07;94.42;97684.23;105999;1254;107293;-68
2024/04/17 05:52:10;;;;;;;6.50;4.20;;;;;;;5.20;94.66;97684.23;105566;1264;97970;-72
2024/04/17 05:54:38;;;;;;;7.70;4.30;;;;;;;5.32;94.75;97691.95;105509;1257;97970;-68
2024/04/17 05:57:05;;;;;;;7.40;3.80;;;;;;;5.47;94.75;97691.94;106009;1256;111544;-68
2024/04/17 05:59:33;;;;;;;6.40;3.60;;;;;;;5.62;94.97;97689.38;105955;1254;98577;-69
2024/04/17 06:02:01;;;;;;;6.80;3.90;;;;;;;5.77;95.06;97688.85;107008;1251;107600;-67
2024/04/17 06:04:29;;;;;;;6.90;3.40;;;;;;;5.92;95.35;97688.41;105368;1251;98041;-67
2024/04/17 06:06:58;;;;;;;6.40;3.50;;;;;;;6.09;95.44;97691.35;106489;1254;97881;-67
2024/04/17 06:09:25;;;;;;;12.20;5.70;;;;;;;6.31;95.74;97688.67;105226;1256;111218;-67
2024/04/17 06:11:53;;;;;;;15.30;6.80;;;;;;;6.56;96.39;97687.94;104731;1267;97986;-68
2024/04/17 06:14:21;;;;;;;13.70;5.90;;;;;;;6.85;96.58;97693.81;106231;1255;108164;-69
2024/04/17 06:16:48;;;;;;;9.60;3.70;;;;;;;7.09;96.56;97692.80;105944;1257;98015;-69
2024/04/17 06:19:16;;;;;;;4.60;2.80;;;;;;;7.28;96.41;97690.73;106751;1254;98003;-69
2024/04/17 06:21:44;;;;;;;10.80;5.40;;;;;;;7.44;96.23;97687.31;105874;1270;110298;-70
2024/04/17 06:24:11;;;;;;;13.60;7.00;;;;;;;7.60;95.86;97689.71;105535;1257;97955;-68
2024/04/17 06:26:39;;;;;;;7.20;3.70;;;;;;;7.74;95.90;97690.87;105684;1257;106879;-68
2024/04/17 06:29:06;;;;;;;4.60;2.80;;;;;;;7.88;96.18;97683.38;105724;1254;97945;-68
2024/04/17 06:31:34;;;;;;;4.60;3.10;;;;;;;8.02;96.08;97684.34;106067;1257;99167;-68
2024/04/17 06:34:02;;;;;;;6.60;2.70;;;;;;;8.11;96.15;97685.36;105642;1256;111247;-70
2024/04/17 06:36:29;;;;;;;4.70;2.70;;;;;;;8.20;95.95;97683.52;105832;1257;98030;-66
2024/04/17 06:38:58;;;;;;;5.90;2.70;;;;;;;8.31;96.15;97684.91;105433;1254;107206;-67
2024/04/17 06:41:25;;;;;;;3.60;2.30;;;;;;;8.44;96.28;97677.77;105347;1257;98338;-69
2024/04/17 06:44:05;;;;;;;5.20;2.50;;;;;;;8.60;96.23;97680.84;105739;1256;99252;-68
2024/04/17 06:46:33;;;;;;;4.20;2.20;;;;;;;8.76;96.20;97687.81;106038;1256;110518;-68
2024/04/17 06:49:00;;;;;;;2.80;1.70;;;;;;;8.90;96.45;97690.82;105899;1256;97961;-70
2024/04/17 06:51:28;;;;;;;4.20;2.20;;;;;;;9.05;96.70;97687.70;106261;1251;107361;-66
2024/04/17 06:53:55;;;;;;;3.70;1.80;;;;;;;9.19;96.63;97684.91;105431;1256;97957;-69
2024/04/17 06:56:23;;;;;;;3.40;2.20;;;;;;;9.31;96.03;97689.52;106899;1254;97951;-68
2024/04/17 06:58:50;;;;;;;5.00;2.10;;;;;;;9.41;96.18;97691.11;104973;1257;112462;-68
2024/04/17 07:01:18;;;;;;;4.50;2.40;;;;;;;9.53;96.03;97689.16;105243;1251;99165;-66
2024/04/17 07:03:46;;;;;;;5.30;2.20;;;;;;;9.61;96.06;97689.12;105501;1254;108667;-68
2024/04/17 07:06:14;;;;;;;5.30;2.30;;;;;;;9.73;96.20;97687.38;105098;1257;98121;-66
2024/04/17 07:08:42;;;;;;;4.80;2.40;;;;;;;9.83;96.35;97685.66;107669;1251;97853;-67
2024/04/17 07:11:09;;;;;;;4.00;2.20;;;;;;;9.96;96.69;97685.77;105142;1251;112526;-67
2024/04/17 07:13:38;;;;;;;5.80;2.40;;;;;;;10.06;96.52;97686.31;106668;1254;97967;-65
2024/04/17 07:16:05;;;;;;;4.30;2.00;;;;;;;10.11;95.99;97689.94;105536;1256;107841;-66
2024/04/17 07:18:33;;;;;;;4.10;2.50;;;;;;;10.12;96.02;97691.63;105116;1259;99167;-67
2024/04/17 07:21:01;;;;;;;4.30;2.10;;;;;;;10.13;95.99;97691.12;105396;1254;98408;-66
2024/04/17 07:23:28;;;;;;;3.20;2.00;;;;;;;10.17;95.45;97690.04;105144;1267;111832;-67
2024/04/17 07:25:56;;;;;;;3.40;2.20;;;;;;;10.15;95.13;97690.44;105882;1253;97952;-67
2024/04/17 07:28:25;;;;;;;4.20;1.90;;;;;;;10.16;95.33;97692.45;105832;1251;107760;-66
2024/04/17 07:30:52;;;;;;;3.90;1.70;;;;;;;10.18;95.05;97694.97;105050;1264;98033;-66
2024/04/17 07:33:20;;;;;;;5.40;2.20;;;;;;;10.15;94.55;97696.67;105530;1254;97917;-66
2024/04/17 07:35:57;;;;;;;3.70;2.40;;;;;;;10.17;95.37;97695.95;105662;1257;111491;-66
2024/04/17 07:38:25;;;;;;;3.50;2.10;;;;;;;10.21;95.25;97698.70;105139;1257;97972;-66
2024/04/17 07:40:56;;;;;;;3.50;2.10;;;;;;;10.19;95.37;97693.76;105238;1254;107251;-68
2024/04/17 07:43:30;;;;;;;5.70;2.80;;;;;;;10.20;95.60;97695.27;106111;1252;97955;-66
2024/04/17 07:45:59;;;;;;;4.40;2.80;;;;;;;10.23;95.65;97700.82;105655;1251;97936;-68
2024/04/17 07:48:29;;;;;;;5.20;2.80;;;;;;;10.23;95.53;97698.89;105857;1253;111159;-68
2024/04/17 07:50:56;;;;;;;7.20;2.90;;;;;;;10.25;95.61;97699.56;105588;1256;99278;-68
2024/04/17 07:53:24;;;;;;;5.60;2.40;;;;;;;10.29;95.38;97700.27;106058;1255;107359;-71
2024/04/17 07:55:52;;;;;;;6.50;4.00;;;;;;;10.30;95.17;97697.52;105410;1256;97961;-68
2024/04/17 07:58:19;;;;;;;3.80;2.40;;;;;;;10.33;94.98;97697.42;105552;1254;98215;-68
2024/04/17 08:00:47;;;;;;;5.20;2.30;;;;;;;10.36;94.58;97696.86;105776;1251;111300;-67
2024/04/17 08:03:15;;;;;;;3.80;2.20;;;;;;;10.38;94.82;97697.70;105556;1256;98025;-68
2024/04/17 08:05:43;;;;;;;4.10;2.60;;;;;;;10.48;94.77;97702.44;106486;1251;107868;-66
2024/04/17 08:08:10;;;;;;;5.90;2.10;;;;;;;10.60;94.95;97703.69;105369;1253;97987;-69
2024/04/17 08:10:39;;;;;;;5.40;2.20;;;;;;;10.69;94.80;97705.08;105985;1251;98038;-67
2024/04/17 08:13:16;;;;;;;5.10;2.50;;;;;;;10.80;95.03;97706.21;104949;1259;110373;-68
2024/04/17 08:15:48;;;;;;;10.70;4.50;;;;;;;10.89;95.14;97711.21;105114;1256;99104;-67
2024/04/17 08:18:15;;;;;;;7.50;3.00;;;;;;;10.94;94.98;97716.73;105289;1257;107623;-70
2024/04/17 08:20:43;;;;;;;5.60;2.50;;;;;;;11.00;94.58;97717.42;105320;1255;98033;-68
2024/04/17 08:23:11;;;;;;;3.70;2.50;;;;;;;11.01;94.40;97716.10;105897;1256;97958;-68
2024/04/17 08:25:39;;;;;;;7.20;2.50;;;;;;;11.02;94.57;97716.16;105685;1254;111340;-68
2024/04/17 08:28:09;;;;;;;4.60;2.40;;;;;;;10.99;94.14;97716.27;105764;1256;97938;-68
2024/04/17 08:30:37;;;;;;;6.00;3.10;;;;;;;10.94;94.31;97717.13;106061;1254;107177;-68
2024/04/17 08:33:04;;;;;;;4.00;2.20;;;;;;;10.89;94.04;97713.01;105271;1267;97971;-68
2024/04/17 08:35:39;;;;;;;4.00;2.40;;;;;;;10.95;93.81;97720.07;105150;1261;97889;-68
2024/04/17 08:38:07;;;;;;;9.40;3.80;;;;;;;11.04;93.72;97724.16;105550;1257;110895;-67
2024/04/17 08:40:36;;;;;;;6.10;2.50;;;;;;;11.10;93.41;97724.50;105461;1255;99829;-67
2024/04/17 08:43:04;;;;;;;5.30;2.70;;;;;;;11.16;93.51;97726.58;105797;1253;107636;-67
2024/04/17 08:45:35;;;;;;;6.20;2.40;;;;;;;11.20;92.85;97729.52;106317;1254;98021;-69
2024/04/17 08:48:18;;;;;;;3.10;2.20;;;;;;;11.28;93.09;97726.42;105498;1252;97933;-67
2024/04/17 08:50:47;;;;;;;4.10;2.00;;;;;;;11.38;93.27;97725.98;105667;1256;111303;-68
2024/04/17 08:53:17;;;;;;;3.70;2.10;;;;;;;11.49;93.03;97722.80;105451;1254;98030;-66
2024/04/17 08:55:46;;;;;;;3.50;2.20;;;;;;;11.58;93.36;97720.71;105191;1257;108042;-68
2024/04/17 08:58:15;;;;;;;4.00;2.10;;;;;;;11.61;92.64;97722.83;105240;1257;98078;-68
2024/04/17 09:00:44;;;;;;;3.20;2.10;;;;;;;11.70;92.38;97720.95;105427;1253;98865;-67
2024/04/17 09:03:19;;;;;;;3.40;2.40;;;;;;;11.78;92.57;97722.86;106073;1266;111231;-70
2024/04/17 09:05:48;;;;;;;4.10;1.80;;;;;;;11.81;92.11;97722.58;105455;1256;98021;-66
2024/04/17 09:08:19;;;;;;;4.40;2.00;;;;;;;11.83;91.92;97722.89;105482;1258;107388;-65
2024/04/17 09:10:47;;;;;;;5.80;2.30;;;;;;;11.87;91.99;97719.60;105400;1254;98107;-71
2024/04/17 09:13:16;;;;;;;6.50;2.50;;;;;;;11.92;92.52;97723.05;105196;1256;97842;-65
2024/04/17 09:15:44;;;;;;;6.00;2.50;;;;;;;11.99;91.74;97719.89;105144;1254;110784;-67
2024/04/17 09:18:12;;;;;;;4.30;2.20;;;;;;;12.07;92.17;97721.26;105240;1257;97954;-67
2024/04/17 09:20:42;;;;;;;4.80;2.40;;;;;;;12.13;91.89;97722.48;105210;1257;108350;-68
2024/04/17 09:23:10;;;;;;;4.10;2.20;;;;;;;12.08;91.46;97723.66;105396;1256;98034;-68
2024/04/17 09:25:38;;;;;;;8.80;4.50;;;;;;;11.99;91.21;97720.73;105548;1257;97963;-67
2024/04/17 09:28:12;;;;;;;4.30;2.50;;;;;;;11.95;91.26;97727.33;106997;1253;111002;-65
2024/04/17 09:30:43;;;;;;;3.80;2.10;;;;;;;11.86;90.53;97731.64;104998;1255;98002;-72
2024/04/17 09:33:11;;;;;;;4.90;2.30;;;;;;;11.71;89.92;97734.31;105555;1269;107657;-65
2024/04/17 09:35:39;;;;;;;9.70;4.60;;;;;;;11.56;89.78;97733.13;105102;1269;97971;-66
2024/04/17 09:38:16;;;;;;;7.20;3.70;;;;;;;11.53;89.93;97740.67;106455;1254;98567;-65
2024/04/17 09:40:47;;;;;;;6.50;4.00;;;;;;;11.55;89.94;97735.33;105829;1253;110880;-66
2024/04/17 09:43:25;;;;;;;7.00;4.10;;;;;;;11.56;89.30;97737.29;105455;1254;98063;-67
2024/04/17 09:45:57;;;;;;;5.10;3.10;;;;;;;11.54;89.17;97738.20;105049;1256;108601;-66
2024/04/17 09:48:27;;;;;;;10.80;4.60;;;;;;;11.54;89.44;97733.84;105168;1269;97974;-66
2024/04/17 09:51:05;;;;;;;7.80;3.50;;;;;;;11.66;89.32;97736.09;105156;1256;97926;-66
2024/04/17 09:53:36;;;;;;;5.60;3.20;;;;;;;11.82;89.76;97733.41;105164;1252;110736;-68
2024/04/17 09:56:06;;;;;;;8.40;4.60;;;;;;;11.95;89.58;97732.16;105468;1254;97932;-66
2024/04/17 09:58:35;;;;;;;8.60;5.10;;;;;;;12.02;89.41;97733.31;106870;1253;107241;-66
2024/04/17 10:03:38;;;;;;;8.20;4.70;;;;;;;12.05;89.10;97740.56;101947;1303;635918;-69
2024/04/17 10:06:06;;;;;;;6.70;3.70;;;;;;;12.04;88.96;97741.73;105936;1266;96199;-68
2024/04/17 10:08:37;;;;;;;10.20;5.70;;;;;;;12.02;88.62;97738.61;106887;1266;95347;-68
2024/04/17 10:11:05;;;;;;;9.50;5.60;;;;;;;12.01;88.75;97738.31;104685;1269;107954;-66
2024/04/17 10:13:34;;;;;;;7.70;4.30;;;;;;;12.00;88.45;97740.22;104626;1266;96293;-69
2024/04/17 10:16:04;;;;;;;7.20;4.30;;;;;;;11.96;87.87;97739.40;105044;1266;204070;-68
2024/04/17 10:18:32;;;;;;;5.50;3.80;;;;;;;11.88;87.62;97742.42;105539;1263;95237;-69
2024/04/17 10:21:02;;;;;;;8.40;4.20;;;;;;;11.78;87.31;97743.66;105532;1263;95365;-68
2024/04/17 10:23:30;;;;;;;6.30;3.70;;;;;;;11.69;86.84;97742.33;104866;1260;109149;-69
2024/04/17 10:25:58;;;;;;;6.60;4.60;;;;;;;11.68;87.44;97734.86;105921;1260;95324;-70
2024/04/17 10:28:26;;;;;;;8.00;5.10;;;;;;;11.75;87.60;97731.29;105094;1259;107562;-70
2024/04/17 10:30:55;;;;;;;7.20;4.50;;;;;;;11.84;87.51;97729.69;104620;1260;98004;-66
2024/04/17 10:33:33;;;;;;;13.00;4.20;;;;;;;11.90;87.46;97729.26;106382;1263;96597;-67
2024/04/17 10:36:03;;;;;;;6.90;3.50;;;;;;;11.95;87.17;97731.30;104460;1263;110006;-66
2024/04/17 10:38:32;;;;;;;5.30;3.90;;;;;;;12.00;87.11;97735.44;104880;1260;96629;-67
2024/04/17 10:41:10;;;;;;;10.30;4.70;;;;;;;12.06;87.17;97734.14;105047;1260;107583;-65
2024/04/17 10:43:39;;;;;;;10.70;5.20;;;;;;;12.18;87.32;97731.34;107379;1260;97880;-69
2024/04/17 10:46:10;;;;;;;9.50;4.30;;;;;;;12.27;87.22;97729.67;104144;1265;96707;-72
2024/04/17 10:48:43;;;;;;;6.00;3.50;;;;;;;12.33;86.94;97725.89;105107;1260;109894;-70
2024/04/17 10:51:14;;;;;;;6.50;4.10;;;;;;;12.43;87.27;97725.39;104952;1260;96639;-69
2024/04/17 10:53:46;;;;;;;7.10;4.40;;;;;;;12.55;87.17;97728.16;105369;1261;106379;-68
2024/04/17 11:48:10;;;;;;;8.30;5.80;;;;;;;12.41;85.10;97730.48;101947;1290;636722;-69
2024/04/17 11:50:38;;;;;;;11.70;6.60;;;;;;;12.46;85.02;97729.77;104703;1267;95261;-69
2024/04/17 11:53:06;;;;;;;9.70;6.00;;;;;;;12.48;84.54;97730.81;104688;1270;95219;-68
2024/04/17 11:55:34;;;;;;;9.20;5.70;;;;;;;12.46;84.51;97735.03;105084;1269;108075;-67
2024/04/17 11:58:01;;;;;;;10.50;6.70;;;;;;;12.44;84.63;97731.09;104670;1270;95530;-67
2024/04/17 12:00:29;;;;;;;11.40;7.20;;;;;;;12.39;84.54;97728.56;104411;1269;108513;-68
2024/04/17 12:02:57;;;;;;;11.00;7.30;;;;;;;12.39;84.68;97731.90;104742;1266;173600;-67
2024/04/17 12:05:25;;;;;;;9.10;6.20;;;;;;;12.42;84.62;97736.02;105299;1266;95310;-68
2024/04/17 12:07:53;;;;;;;9.30;5.80;;;;;;;12.46;84.49;97730.27;104665;1266;108646;-68
2024/04/17 12:10:20;;;;;;;9.10;6.50;;;;;;;12.49;84.46;97729.86;104571;1267;95725;-68
2024/04/17 12:12:48;;;;;;;6.50;4.70;;;;;;;12.46;83.79;97729.45;105042;1267;108215;-68
2024/04/17 12:15:15;;;;;;;9.60;5.60;;;;;;;12.42;84.05;97730.88;105319;1266;96615;-68
2024/04/17 12:17:43;;;;;;;9.50;5.80;;;;;;;12.50;83.98;97736.27;105155;1266;96530;-68
2024/04/17 12:20:11;;;;;;;8.40;5.10;;;;;;;12.60;84.01;97735.84;104940;1266;109596;-69
2024/04/17 12:22:39;;;;;;;9.60;5.30;;;;;;;12.66;83.72;97735.56;106725;1256;97527;-68
2024/04/17 12:27:53;;;;;;;7.50;4.10;;;;;;;12.71;82.75;97739.52;105378;1254;96533;-67